sensor_id;sensor_type;location;lat;lon;timestamp;pressure;altitude;pressure_sealevel;temperature;humidity
78986;BME280;68384;55.750;48.746;2023-06-22T00:00:47;99191.38;;;6.80;75.04
78986;BME280;68384;55.750;48.746;2023-06-22T00:01:50;99199.22;;;6.83;74.93
78986;BME280;68384;55.750;48.746;2023-06-22T00:02:53;99188.13;;;6.84;75.31
78986;BME280;68384;55.750;48.746;2023-06-22T00:03:56;99201.03;;;6.85;75.20
78986;BME280;68384;55.750;48.746;2023-06-22T00:05:00;99194.31;;;6.89;75.28
78986;BME280;68384;55.750;48.746;2023-06-22T00:06:03;99189.16;;;6.89;75.36
78986;BME280;68384;55.750;48.746;2023-06-22T00:07:07;99192.66;;;6.91;75.18
78986;BME280;68384;55.750;48.746;2023-06-22T00:08:10;99191.84;;;6.92;75.63
78986;BME280;68384;55.750;48.746;2023-06-22T00:09:15;99192.00;;;6.96;75.44
78986;BME280;68384;55.750;48.746;2023-06-22T00:10:18;99190.31;;;6.97;75.28
78986;BME280;68384;55.750;48.746;2023-06-22T00:11:22;99198.06;;;6.98;75.56
78986;BME280;68384;55.750;48.746;2023-06-22T00:12:25;99198.03;;;6.97;75.23
78986;BME280;68384;55.750;48.746;2023-06-22T00:13:30;99195.47;;;6.97;75.35
78986;BME280;68384;55.750;48.746;2023-06-22T00:14:34;99201.59;;;7.00;75.39
78986;BME280;68384;55.750;48.746;2023-06-22T00:15:38;99197.31;;;7.01;75.48
78986;BME280;68384;55.750;48.746;2023-06-22T00:16:42;99196.50;;;7.02;75.40
78986;BME280;68384;55.750;48.746;2023-06-22T00:17:45;99197.38;;;7.02;75.21
78986;BME280;68384;55.750;48.746;2023-06-22T00:18:49;99199.06;;;7.02;75.05
78986;BME280;68384;55.750;48.746;2023-06-22T00:19:52;99200.84;;;7.03;75.67
78986;BME280;68384;55.750;48.746;2023-06-22T00:20:57;99204.34;;;7.05;75.51
78986;BME280;68384;55.750;48.746;2023-06-22T00:22:01;99208.72;;;7.07;75.53
78986;BME280;68384;55.750;48.746;2023-06-22T00:23:06;99200.06;;;7.05;75.94
78986;BME280;68384;55.750;48.746;2023-06-22T00:24:11;99207.03;;;7.08;75.83
78986;BME280;68384;55.750;48.746;2023-06-22T00:25:15;99203.56;;;7.07;75.88
78986;BME280;68384;55.750;48.746;2023-06-22T00:26:18;99200.06;;;7.05;76.01
78986;BME280;68384;55.750;48.746;2023-06-22T00:27:22;99202.56;;;7.04;76.33
78986;BME280;68384;55.750;48.746;2023-06-22T00:28:24;99208.69;;;7.06;76.32
78986;BME280;68384;55.750;48.746;2023-06-22T00:29:30;99206.00;;;7.03;76.34
78986;BME280;68384;55.750;48.746;2023-06-22T00:30:33;99207.72;;;7.04;76.57
78986;BME280;68384;55.750;48.746;2023-06-22T00:31:37;99209.38;;;7.02;76.60
78986;BME280;68384;55.750;48.746;2023-06-22T00:32:40;99217.91;;;7.01;76.83
78986;BME280;68384;55.750;48.746;2023-06-22T00:33:44;99211.91;;;7.00;76.64
78986;BME280;68384;55.750;48.746;2023-06-22T00:34:49;99211.84;;;6.99;76.95
78986;BME280;68384;55.750;48.746;2023-06-22T00:35:52;99211.91;;;7.00;76.86
78986;BME280;68384;55.750;48.746;2023-06-22T00:36:56;99213.41;;;6.95;77.09
78986;BME280;68384;55.750;48.746;2023-06-22T00:38:00;99214.31;;;6.96;77.14
78986;BME280;68384;55.750;48.746;2023-06-22T00:39:06;99213.38;;;6.94;77.05
78986;BME280;68384;55.750;48.746;2023-06-22T00:40:11;99213.38;;;6.94;76.87
78986;BME280;68384;55.750;48.746;2023-06-22T00:41:15;99215.84;;;6.91;76.83
78986;BME280;68384;55.750;48.746;2023-06-22T00:42:18;99219.31;;;6.91;76.81
78986;BME280;68384;55.750;48.746;2023-06-22T00:43:22;99212.34;;;6.89;76.77
78986;BME280;68384;55.750;48.746;2023-06-22T00:44:25;99214.97;;;6.90;76.98
78986;BME280;68384;55.750;48.746;2023-06-22T00:45:30;99217.59;;;6.92;76.84
78986;BME280;68384;55.750;48.746;2023-06-22T00:46:33;99219.34;;;6.93;76.94
78986;BME280;68384;55.750;48.746;2023-06-22T00:47:38;99222.88;;;6.95;77.04
78986;BME280;68384;55.750;48.746;2023-06-22T00:48:41;99223.72;;;6.95;77.10
78986;BME280;68384;55.750;48.746;2023-06-22T00:49:49;99224.59;;;6.96;76.97
78986;BME280;68384;55.750;48.746;2023-06-22T00:50:53;99216.84;;;6.94;76.94
78986;BME280;68384;55.750;48.746;2023-06-22T00:51:58;99228.06;;;6.96;77.04
78986;BME280;68384;55.750;48.746;2023-06-22T00:53:04;99224.59;;;6.96;76.87
78986;BME280;68384;55.750;48.746;2023-06-22T00:54:12;99231.44;;;6.95;77.44
78986;BME280;68384;55.750;48.746;2023-06-22T00:55:16;99228.94;;;6.97;77.02
78986;BME280;68384;55.750;48.746;2023-06-22T00:56:20;99224.59;;;6.96;76.78
78986;BME280;68384;55.750;48.746;2023-06-22T00:57:27;99235.03;;;6.99;76.86
78986;BME280;68384;55.750;48.746;2023-06-22T00:58:30;99230.88;;;7.02;76.67
78986;BME280;68384;55.750;48.746;2023-06-22T00:59:36;99236.72;;;6.98;76.54
78986;BME280;68384;55.750;48.746;2023-06-22T01:00:41;99232.44;;;6.99;76.31
78986;BME280;68384;55.750;48.746;2023-06-22T01:01:45;99233.28;;;6.98;76.51
78986;BME280;68384;55.750;48.746;2023-06-22T01:02:49;99229.06;;;7.00;76.69
78986;BME280;68384;55.750;48.746;2023-06-22T01:03:54;99232.44;;;6.99;76.79
78986;BME280;68384;55.750;48.746;2023-06-22T01:05:00;99228.06;;;6.96;76.62
78986;BME280;68384;55.750;48.746;2023-06-22T01:06:06;99233.38;;;7.01;76.45
78986;BME280;68384;55.750;48.746;2023-06-22T01:07:19;99228.28;;;7.02;76.23
78986;BME280;68384;55.750;48.746;2023-06-22T01:08:31;99206.41;;;6.91;76.31
78986;BME280;68384;55.750;48.746;2023-06-22T01:09:51;99225.75;;;7.04;75.90
78986;BME280;68384;55.750;48.746;2023-06-22T01:11:04;99227.69;;;7.09;76.14
78986;BME280;68384;55.750;48.746;2023-06-22T01:12:09;99238.00;;;7.09;75.79
78986;BME280;68384;55.750;48.746;2023-06-22T01:13:20;99230.09;;;7.05;75.88
78986;BME280;68384;55.750;48.746;2023-06-22T01:14:31;99229.34;;;7.07;75.46
78986;BME280;68384;55.750;48.746;2023-06-22T01:15:39;99240.53;;;7.08;75.50
78986;BME280;68384;55.750;48.746;2023-06-22T01:16:48;99238.06;;;7.11;75.60
78986;BME280;68384;55.750;48.746;2023-06-22T01:17:53;99235.50;;;7.11;75.75
78986;BME280;68384;55.750;48.746;2023-06-22T01:19:02;99237.34;;;7.15;75.66
78986;BME280;68384;55.750;48.746;2023-06-22T01:20:11;99236.56;;;7.17;75.56
78986;BME280;68384;55.750;48.746;2023-06-22T01:21:19;99250.41;;;7.19;75.40
78986;BME280;68384;55.750;48.746;2023-06-22T01:22:29;99247.88;;;7.21;75.24
78986;BME280;68384;55.750;48.746;2023-06-22T01:23:42;99247.66;;;7.15;75.55
78986;BME280;68384;55.750;48.746;2023-06-22T01:25:00;99244.47;;;7.22;75.38
78986;BME280;68384;55.750;48.746;2023-06-22T01:26:11;99249.63;;;7.22;75.31
78986;BME280;68384;55.750;48.746;2023-06-22T01:27:32;99247.09;;;7.23;75.17
78986;BME280;68384;55.750;48.746;2023-06-22T01:28:43;99240.41;;;7.27;75.32
78986;BME280;68384;55.750;48.746;2023-06-22T01:29:48;99246.22;;;7.23;75.24
78986;BME280;68384;55.750;48.746;2023-06-22T01:30:51;99238.84;;;7.32;75.30
78986;BME280;68384;55.750;48.746;2023-06-22T01:32:08;99241.53;;;7.35;74.97
78986;BME280;68384;55.750;48.746;2023-06-22T01:33:14;99233.06;;;7.39;74.89
78986;BME280;68384;55.750;48.746;2023-06-22T01:34:19;99234.88;;;7.42;75.02
78986;BME280;68384;55.750;48.746;2023-06-22T01:35:24;99237.69;;;7.48;74.99
78986;BME280;68384;55.750;48.746;2023-06-22T01:36:28;99237.91;;;7.54;74.89
78986;BME280;68384;55.750;48.746;2023-06-22T01:37:34;99241.47;;;7.57;74.85
78986;BME280;68384;55.750;48.746;2023-06-22T01:38:38;99233.66;;;7.56;74.84
78986;BME280;68384;55.750;48.746;2023-06-22T01:39:42;99243.41;;;7.64;74.50
78986;BME280;68384;55.750;48.746;2023-06-22T01:40:45;99244.28;;;7.65;74.79
78986;BME280;68384;55.750;48.746;2023-06-22T01:41:52;99234.88;;;7.65;74.45
78986;BME280;68384;55.750;48.746;2023-06-22T01:42:56;99241.25;;;7.76;74.49
78986;BME280;68384;55.750;48.746;2023-06-22T01:44:03;99246.47;;;7.78;74.39
78986;BME280;68384;55.750;48.746;2023-06-22T01:45:08;99249.16;;;7.81;74.44
78986;BME280;68384;55.750;48.746;2023-06-22T01:46:14;99246.78;;;7.87;74.42
78986;BME280;68384;55.750;48.746;2023-06-22T01:47:17;99237.44;;;7.90;74.31
78986;BME280;68384;55.750;48.746;2023-06-22T01:48:22;99247.03;;;7.94;74.11
78986;BME280;68384;55.750;48.746;2023-06-22T01:49:25;99249.56;;;7.93;74.15
78986;BME280;68384;55.750;48.746;2023-06-22T01:50:30;99243.63;;;7.96;74.18
78986;BME280;68384;55.750;48.746;2023-06-22T01:51:33;99244.53;;;7.98;74.21
78986;BME280;68384;55.750;48.746;2023-06-22T01:52:37;99251.53;;;8.02;74.24
78986;BME280;68384;55.750;48.746;2023-06-22T01:53:40;99245.63;;;8.04;74.34
78986;BME280;68384;55.750;48.746;2023-06-22T01:54:44;99244.88;;;8.08;74.13
78986;BME280;68384;55.750;48.746;2023-06-22T01:55:48;99247.53;;;8.10;74.45
78986;BME280;68384;55.750;48.746;2023-06-22T01:56:51;99245.13;;;8.16;74.01
78986;BME280;68384;55.750;48.746;2023-06-22T01:57:54;99247.78;;;8.17;74.02
78986;BME280;68384;55.750;48.746;2023-06-22T01:59:03;99252.25;;;8.23;74.19
78986;BME280;68384;55.750;48.746;2023-06-22T02:00:11;99253.97;;;8.22;73.95
78986;BME280;68384;55.750;48.746;2023-06-22T02:01:21;99251.50;;;8.27;74.00
78986;BME280;68384;55.750;48.746;2023-06-22T02:02:27;99249.94;;;8.32;73.98
78986;BME280;68384;55.750;48.746;2023-06-22T02:03:37;99249.25;;;8.37;73.67
78986;BME280;68384;55.750;48.746;2023-06-22T02:04:46;99248.41;;;8.37;73.85
78986;BME280;68384;55.750;48.746;2023-06-22T02:05:54;99239.00;;;8.39;73.50
78986;BME280;68384;55.750;48.746;2023-06-22T02:06:59;99247.72;;;8.42;73.79
78986;BME280;68384;55.750;48.746;2023-06-22T02:08:08;99240.69;;;8.38;73.72
78986;BME280;68384;55.750;48.746;2023-06-22T02:09:15;99250.22;;;8.39;73.79
78986;BME280;68384;55.750;48.746;2023-06-22T02:10:20;99255.13;;;8.32;73.88
78986;BME280;68384;55.750;48.746;2023-06-22T02:11:26;99262.47;;;8.20;74.48
78986;BME280;68384;55.750;48.746;2023-06-22T02:12:31;99252.59;;;8.33;74.22
78986;BME280;68384;55.750;48.746;2023-06-22T02:13:36;99258.66;;;8.34;74.06
78986;BME280;68384;55.750;48.746;2023-06-22T02:14:41;99249.25;;;8.37;74.07
78986;BME280;68384;55.750;48.746;2023-06-22T02:15:46;99250.16;;;8.38;73.93
78986;BME280;68384;55.750;48.746;2023-06-22T02:16:50;99252.81;;;8.41;74.00
78986;BME280;68384;55.750;48.746;2023-06-22T02:17:55;99258.13;;;8.45;73.87
78986;BME280;68384;55.750;48.746;2023-06-22T02:19:01;99258.19;;;8.47;74.07
78986;BME280;68384;55.750;48.746;2023-06-22T02:20:12;99260.03;;;8.51;73.61
78986;BME280;68384;55.750;48.746;2023-06-22T02:21:16;99254.06;;;8.53;73.71
78986;BME280;68384;55.750;48.746;2023-06-22T02:22:19;99255.63;;;8.48;73.69
78986;BME280;68384;55.750;48.746;2023-06-22T02:23:23;99248.97;;;8.55;73.45
78986;BME280;68384;55.750;48.746;2023-06-22T02:24:26;99257.78;;;8.62;73.08
78986;BME280;68384;55.750;48.746;2023-06-22T02:25:33;99259.63;;;8.66;72.96
78986;BME280;68384;55.750;48.746;2023-06-22T02:26:37;99254.50;;;8.67;73.00
78986;BME280;68384;55.750;48.746;2023-06-22T02:27:44;99256.25;;;8.68;72.83
78986;BME280;68384;55.750;48.746;2023-06-22T02:28:47;99255.47;;;8.71;72.82
78986;BME280;68384;55.750;48.746;2023-06-22T02:29:53;99256.31;;;8.70;72.90
78986;BME280;68384;55.750;48.746;2023-06-22T02:30:56;99251.84;;;8.64;72.84
78986;BME280;68384;55.750;48.746;2023-06-22T02:32:00;99254.22;;;8.58;73.36
78986;BME280;68384;55.750;48.746;2023-06-22T02:33:03;99253.38;;;8.59;73.28
78986;BME280;68384;55.750;48.746;2023-06-22T02:34:07;99260.09;;;8.52;73.35
78986;BME280;68384;55.750;48.746;2023-06-22T02:35:09;99259.78;;;8.43;73.96
78986;BME280;68384;55.750;48.746;2023-06-22T02:36:13;99264.41;;;8.53;74.22
78986;BME280;68384;55.750;48.746;2023-06-22T02:37:16;99252.97;;;8.45;74.06
78986;BME280;68384;55.750;48.746;2023-06-22T02:38:20;99257.53;;;8.54;74.02
78986;BME280;68384;55.750;48.746;2023-06-22T02:39:24;99262.59;;;8.51;73.89
78986;BME280;68384;55.750;48.746;2023-06-22T02:40:28;99267.78;;;8.51;73.51
78986;BME280;68384;55.750;48.746;2023-06-22T02:41:33;99257.44;;;8.51;73.82
78986;BME280;68384;55.750;48.746;2023-06-22T02:42:39;99254.84;;;8.51;73.68
78986;BME280;68384;55.750;48.746;2023-06-22T02:43:43;99260.97;;;8.53;73.69
78986;BME280;68384;55.750;48.746;2023-06-22T02:44:47;99254.72;;;8.46;73.66
78986;BME280;68384;55.750;48.746;2023-06-22T02:45:51;99234.75;;;8.41;73.64
78986;BME280;68384;55.750;48.746;2023-06-22T02:46:56;99251.31;;;8.47;73.83
78986;BME280;68384;55.750;48.746;2023-06-22T02:47:59;99259.00;;;8.46;73.78
78986;BME280;68384;55.750;48.746;2023-06-22T02:49:03;99254.00;;;8.50;73.71
78986;BME280;68384;55.750;48.746;2023-06-22T02:50:06;99255.50;;;8.44;73.60
78986;BME280;68384;55.750;48.746;2023-06-22T02:51:10;99256.41;;;8.46;73.96
78986;BME280;68384;55.750;48.746;2023-06-22T02:52:13;99252.81;;;8.41;74.17
78986;BME280;68384;55.750;48.746;2023-06-22T02:53:17;99271.72;;;8.40;74.40
78986;BME280;68384;55.750;48.746;2023-06-22T02:54:21;99258.91;;;8.43;74.11
78986;BME280;68384;55.750;48.746;2023-06-22T02:55:27;99260.66;;;8.42;74.51
78986;BME280;68384;55.750;48.746;2023-06-22T02:56:33;99270.09;;;8.42;74.56
78986;BME280;68384;55.750;48.746;2023-06-22T02:57:38;99268.31;;;8.41;74.30
78986;BME280;68384;55.750;48.746;2023-06-22T02:58:46;99267.50;;;8.42;74.34
78986;BME280;68384;55.750;48.746;2023-06-22T02:59:50;99257.19;;;8.42;74.28
78986;BME280;68384;55.750;48.746;2023-06-22T03:00:54;99263.72;;;8.31;74.50
78986;BME280;68384;55.750;48.746;2023-06-22T03:01:58;99260.38;;;8.35;74.54
78986;BME280;68384;55.750;48.746;2023-06-22T03:03:04;99253.63;;;8.38;74.49
78986;BME280;68384;55.750;48.746;2023-06-22T03:04:09;99263.06;;;8.38;74.22
78986;BME280;68384;55.750;48.746;2023-06-22T03:05:14;99265.75;;;8.41;74.39
78986;BME280;68384;55.750;48.746;2023-06-22T03:06:17;99253.66;;;8.40;73.95
78986;BME280;68384;55.750;48.746;2023-06-22T03:07:26;99252.22;;;8.48;73.99
78986;BME280;68384;55.750;48.746;2023-06-22T03:08:31;99234.66;;;8.38;74.14
78986;BME280;68384;55.750;48.746;2023-06-22T03:09:35;99257.41;;;8.49;73.93
78986;BME280;68384;55.750;48.746;2023-06-22T03:10:38;99259.19;;;8.52;73.72
78986;BME280;68384;55.750;48.746;2023-06-22T03:11:42;99252.38;;;8.54;73.62
78986;BME280;68384;55.750;48.746;2023-06-22T03:12:46;99256.81;;;8.58;73.45
78986;BME280;68384;55.750;48.746;2023-06-22T03:13:50;99249.88;;;8.57;73.58
78986;BME280;68384;55.750;48.746;2023-06-22T03:14:54;99241.94;;;8.51;73.58
78986;BME280;68384;55.750;48.746;2023-06-22T03:16:00;99258.66;;;8.62;73.61
78986;BME280;68384;55.750;48.746;2023-06-22T03:17:04;99246.59;;;8.63;73.58
78986;BME280;68384;55.750;48.746;2023-06-22T03:18:07;99251.88;;;8.66;73.62
78986;BME280;68384;55.750;48.746;2023-06-22T03:19:11;99241.63;;;8.69;73.57
78986;BME280;68384;55.750;48.746;2023-06-22T03:20:14;99254.66;;;8.72;73.49
78986;BME280;68384;55.750;48.746;2023-06-22T03:21:18;99253.06;;;8.77;73.14
78986;BME280;68384;55.750;48.746;2023-06-22T03:22:21;99253.94;;;8.77;73.25
78986;BME280;68384;55.750;48.746;2023-06-22T03:23:25;99250.69;;;8.83;73.12
78986;BME280;68384;55.750;48.746;2023-06-22T03:24:28;99250.63;;;8.81;72.89
78986;BME280;68384;55.750;48.746;2023-06-22T03:25:32;99248.31;;;8.90;72.75
78986;BME280;68384;55.750;48.746;2023-06-22T03:26:36;99251.91;;;8.95;72.66
78986;BME280;68384;55.750;48.746;2023-06-22T03:27:40;99248.59;;;8.99;72.59
78986;BME280;68384;55.750;48.746;2023-06-22T03:28:44;99253.91;;;9.05;72.33
78986;BME280;68384;55.750;48.746;2023-06-22T03:29:46;99264.53;;;9.13;72.35
78986;BME280;68384;55.750;48.746;2023-06-22T03:30:50;99253.47;;;9.19;72.13
78986;BME280;68384;55.750;48.746;2023-06-22T03:31:55;99255.38;;;9.24;71.73
78986;BME280;68384;55.750;48.746;2023-06-22T03:32:59;99258.78;;;9.25;71.35
78986;BME280;68384;55.750;48.746;2023-06-22T03:34:02;99263.25;;;9.29;71.13
78986;BME280;68384;55.750;48.746;2023-06-22T03:35:06;99261.53;;;9.29;71.13
78986;BME280;68384;55.750;48.746;2023-06-22T03:36:11;99259.97;;;9.36;71.36
78986;BME280;68384;55.750;48.746;2023-06-22T03:37:15;99264.22;;;9.34;71.25
78986;BME280;68384;55.750;48.746;2023-06-22T03:38:18;99261.00;;;9.41;71.06
78986;BME280;68384;55.750;48.746;2023-06-22T03:39:23;99269.66;;;9.43;70.91
78986;BME280;68384;55.750;48.746;2023-06-22T03:40:26;99268.00;;;9.45;70.96
78986;BME280;68384;55.750;48.746;2023-06-22T03:41:31;99269.53;;;9.38;70.91
78986;BME280;68384;55.750;48.746;2023-06-22T03:42:34;99267.00;;;9.40;71.28
78986;BME280;68384;55.750;48.746;2023-06-22T03:43:39;99272.50;;;9.52;71.01
78986;BME280;68384;55.750;48.746;2023-06-22T03:44:42;99275.94;;;9.51;70.66
78986;BME280;68384;55.750;48.746;2023-06-22T03:45:46;99272.47;;;9.50;70.70
78986;BME280;68384;55.750;48.746;2023-06-22T03:46:50;99271.66;;;9.53;71.17
78986;BME280;68384;55.750;48.746;2023-06-22T03:47:55;99277.84;;;9.58;70.88
78986;BME280;68384;55.750;48.746;2023-06-22T03:48:59;99275.34;;;9.61;70.61
78986;BME280;68384;55.750;48.746;2023-06-22T03:50:06;99269.34;;;9.62;70.35
78986;BME280;68384;55.750;48.746;2023-06-22T03:51:10;99276.19;;;9.60;70.24
78986;BME280;68384;55.750;48.746;2023-06-22T03:52:13;99272.44;;;9.49;70.22
78986;BME280;68384;55.750;48.746;2023-06-22T03:53:17;99278.44;;;9.48;70.29
78986;BME280;68384;55.750;48.746;2023-06-22T03:54:20;99275.03;;;9.49;70.50
78986;BME280;68384;55.750;48.746;2023-06-22T03:55:24;99272.34;;;9.46;70.31
78986;BME280;68384;55.750;48.746;2023-06-22T03:56:27;99278.44;;;9.48;70.43
78986;BME280;68384;55.750;48.746;2023-06-22T03:57:31;99277.53;;;9.46;70.77
78986;BME280;68384;55.750;48.746;2023-06-22T03:58:34;99275.84;;;9.48;70.79
78986;BME280;68384;55.750;48.746;2023-06-22T03:59:39;99272.63;;;9.56;70.36
78986;BME280;68384;55.750;48.746;2023-06-22T04:00:42;99276.25;;;9.63;70.85
78986;BME280;68384;55.750;48.746;2023-06-22T04:01:46;99276.41;;;9.69;70.64
78986;BME280;68384;55.750;48.746;2023-06-22T04:02:49;99273.09;;;9.73;70.42
78986;BME280;68384;55.750;48.746;2023-06-22T04:03:54;99275.88;;;9.82;70.41
78986;BME280;68384;55.750;48.746;2023-06-22T04:04:57;99280.41;;;9.89;70.02
78986;BME280;68384;55.750;48.746;2023-06-22T04:06:05;99282.09;;;9.87;69.70
78986;BME280;68384;55.750;48.746;2023-06-22T04:07:08;99286.31;;;9.84;69.38
78986;BME280;68384;55.750;48.746;2023-06-22T04:08:12;99296.50;;;9.78;69.01
78986;BME280;68384;55.750;48.746;2023-06-22T04:09:15;99282.00;;;9.84;69.06
78986;BME280;68384;55.750;48.746;2023-06-22T04:10:20;99293.16;;;9.82;68.72
78986;BME280;68384;55.750;48.746;2023-06-22T04:11:23;99288.56;;;9.71;68.53
78986;BME280;68384;55.750;48.746;2023-06-22T04:12:26;99281.59;;;9.69;68.86
78986;BME280;68384;55.750;48.746;2023-06-22T04:13:29;99294.78;;;9.78;68.62
78986;BME280;68384;55.750;48.746;2023-06-22T04:14:33;99289.63;;;9.80;68.71
78986;BME280;68384;55.750;48.746;2023-06-22T04:15:36;99291.41;;;9.81;69.04
78986;BME280;68384;55.750;48.746;2023-06-22T04:16:40;99300.00;;;9.80;69.03
78986;BME280;68384;55.750;48.746;2023-06-22T04:17:43;99290.50;;;9.80;69.17
78986;BME280;68384;55.750;48.746;2023-06-22T04:18:47;99293.28;;;9.86;69.40
78986;BME280;68384;55.750;48.746;2023-06-22T04:19:51;99293.44;;;9.92;69.02
78986;BME280;68384;55.750;48.746;2023-06-22T04:20:55;99288.19;;;9.89;68.84
78986;BME280;68384;55.750;48.746;2023-06-22T04:21:58;99286.56;;;9.94;68.76
78986;BME280;68384;55.750;48.746;2023-06-22T04:23:20;99293.72;;;10.04;68.72
78986;BME280;68384;55.750;48.746;2023-06-22T04:24:24;99292.28;;;10.14;68.86
78986;BME280;68384;55.750;48.746;2023-06-22T04:25:27;99282.78;;;10.14;68.48
78986;BME280;68384;55.750;48.746;2023-06-22T04:26:31;99289.22;;;10.30;68.75
78986;BME280;68384;55.750;48.746;2023-06-22T04:27:57;99285.34;;;10.49;68.21
78986;BME280;68384;55.750;48.746;2023-06-22T04:29:01;99289.09;;;10.61;67.56
78986;BME280;68384;55.750;48.746;2023-06-22T04:30:08;99294.56;;;10.72;66.26
78986;BME280;68384;55.750;48.746;2023-06-22T04:31:13;99292.06;;;10.76;65.62
78986;BME280;68384;55.750;48.746;2023-06-22T04:32:16;99293.84;;;10.79;65.36
78986;BME280;68384;55.750;48.746;2023-06-22T04:33:20;99297.41;;;10.82;64.98
78986;BME280;68384;55.750;48.746;2023-06-22T04:34:22;99293.19;;;10.87;65.43
78986;BME280;68384;55.750;48.746;2023-06-22T04:35:30;99290.75;;;10.95;64.67
78986;BME280;68384;55.750;48.746;2023-06-22T04:36:37;99283.13;;;11.03;64.59
78986;BME280;68384;55.750;48.746;2023-06-22T04:37:41;99292.75;;;11.07;64.39
78986;BME280;68384;55.750;48.746;2023-06-22T04:38:45;99288.44;;;11.07;63.38
78986;BME280;68384;55.750;48.746;2023-06-22T04:39:48;99292.94;;;11.16;63.40
78986;BME280;68384;55.750;48.746;2023-06-22T04:40:52;99286.00;;;11.15;63.83
78986;BME280;68384;55.750;48.746;2023-06-22T04:41:57;99293.91;;;11.21;62.99
78986;BME280;68384;55.750;48.746;2023-06-22T04:43:02;99295.84;;;11.29;62.87
78986;BME280;68384;55.750;48.746;2023-06-22T04:44:06;99289.94;;;11.38;62.56
78986;BME280;68384;55.750;48.746;2023-06-22T04:45:10;99293.66;;;11.51;62.62
78986;BME280;68384;55.750;48.746;2023-06-22T04:46:13;99293.78;;;11.58;61.79
78986;BME280;68384;55.750;48.746;2023-06-22T04:47:17;99291.41;;;11.69;61.88
78986;BME280;68384;55.750;48.746;2023-06-22T04:48:19;99294.19;;;11.78;61.35
78986;BME280;68384;55.750;48.746;2023-06-22T04:49:23;99290.97;;;11.91;61.38
78986;BME280;68384;55.750;48.746;2023-06-22T04:50:36;99293.78;;;12.03;61.12
78986;BME280;68384;55.750;48.746;2023-06-22T04:51:42;99294.78;;;12.08;61.07
78986;BME280;68384;55.750;48.746;2023-06-22T04:52:44;99284.56;;;12.20;60.23
78986;BME280;68384;55.750;48.746;2023-06-22T04:53:49;99285.56;;;12.28;60.73
78986;BME280;68384;55.750;48.746;2023-06-22T04:54:51;99287.50;;;12.40;60.35
78986;BME280;68384;55.750;48.746;2023-06-22T04:55:58;99281.56;;;12.50;58.87
78986;BME280;68384;55.750;48.746;2023-06-22T04:57:01;99287.88;;;12.64;58.70
78986;BME280;68384;55.750;48.746;2023-06-22T04:58:05;99280.25;;;12.76;58.23
78986;BME280;68384;55.750;48.746;2023-06-22T04:59:10;99290.78;;;12.85;57.46
78986;BME280;68384;55.750;48.746;2023-06-22T05:00:16;99282.97;;;12.84;57.60
78986;BME280;68384;55.750;48.746;2023-06-22T05:01:20;99283.91;;;12.87;57.48
78986;BME280;68384;55.750;48.746;2023-06-22T05:02:24;99275.41;;;13.00;57.39
78986;BME280;68384;55.750;48.746;2023-06-22T05:03:30;99287.72;;;13.13;56.37
78986;BME280;68384;55.750;48.746;2023-06-22T05:04:34;99281.63;;;13.13;55.41
78986;BME280;68384;55.750;48.746;2023-06-22T05:05:43;99285.31;;;13.29;55.44
78986;BME280;68384;55.750;48.746;2023-06-22T05:06:46;99292.38;;;13.37;55.90
78986;BME280;68384;55.750;48.746;2023-06-22T05:07:51;99290.72;;;13.42;55.26
78986;BME280;68384;55.750;48.746;2023-06-22T05:08:56;99283.03;;;13.53;55.70
78986;BME280;68384;55.750;48.746;2023-06-22T05:10:01;99290.09;;;13.63;55.59
78986;BME280;68384;55.750;48.746;2023-06-22T05:11:05;99292.66;;;13.58;55.32
78986;BME280;68384;55.750;48.746;2023-06-22T05:12:09;99294.38;;;13.59;54.87
78986;BME280;68384;55.750;48.746;2023-06-22T05:13:14;99300.44;;;13.55;53.44
78986;BME280;68384;55.750;48.746;2023-06-22T05:14:18;99306.50;;;13.56;52.97
78986;BME280;68384;55.750;48.746;2023-06-22T05:15:21;99295.81;;;13.32;53.45
78986;BME280;68384;55.750;48.746;2023-06-22T05:16:29;99297.41;;;13.25;54.49
78986;BME280;68384;55.750;48.746;2023-06-22T05:17:31;99291.31;;;13.23;55.00
78986;BME280;68384;55.750;48.746;2023-06-22T05:18:36;99297.38;;;13.22;55.34
78986;BME280;68384;55.750;48.746;2023-06-22T05:19:41;99305.97;;;13.18;55.63
78986;BME280;68384;55.750;48.746;2023-06-22T05:20:49;99299.09;;;13.21;55.10
78986;BME280;68384;55.750;48.746;2023-06-22T05:21:52;99300.78;;;13.18;55.68
78986;BME280;68384;55.750;48.746;2023-06-22T05:22:56;99304.38;;;13.29;55.45
78986;BME280;68384;55.750;48.746;2023-06-22T05:23:59;99307.78;;;13.20;55.19
78986;BME280;68384;55.750;48.746;2023-06-22T05:25:07;99305.22;;;13.26;55.74
78986;BME280;68384;55.750;48.746;2023-06-22T05:26:10;99307.78;;;13.22;56.42
78986;BME280;68384;55.750;48.746;2023-06-22T05:27:14;99298.06;;;13.09;56.64
78986;BME280;68384;55.750;48.746;2023-06-22T05:28:17;99302.63;;;13.26;55.92
78986;BME280;68384;55.750;48.746;2023-06-22T05:29:25;99285.81;;;13.00;56.04
78986;BME280;68384;55.750;48.746;2023-06-22T05:30:30;99292.97;;;13.16;55.42
78986;BME280;68384;55.750;48.746;2023-06-22T05:31:33;99292.28;;;13.31;55.46
78986;BME280;68384;55.750;48.746;2023-06-22T05:32:37;99286.31;;;13.38;55.08
78986;BME280;68384;55.750;48.746;2023-06-22T05:33:40;99291.53;;;13.38;54.87
78986;BME280;68384;55.750;48.746;2023-06-22T05:34:44;99295.00;;;13.39;55.05
78986;BME280;68384;55.750;48.746;2023-06-22T05:35:48;99299.50;;;13.52;54.86
78986;BME280;68384;55.750;48.746;2023-06-22T05:36:52;99293.44;;;13.53;54.59
78986;BME280;68384;55.750;48.746;2023-06-22T05:37:55;99292.50;;;13.45;54.09
78986;BME280;68384;55.750;48.746;2023-06-22T05:39:11;99285.41;;;13.33;54.84
78986;BME280;68384;55.750;48.746;2023-06-22T05:40:16;99307.06;;;13.32;55.25
78986;BME280;68384;55.750;48.746;2023-06-22T05:41:18;99308.75;;;13.29;53.89
78986;BME280;68384;55.750;48.746;2023-06-22T05:42:23;99303.50;;;13.27;53.49
78986;BME280;68384;55.750;48.746;2023-06-22T05:43:27;99304.28;;;13.20;53.59